Daniel Oduber Quiros International Airport
MRLB : now visible

Airfield :











YOU CAN JOIN US ON...

 
LOGIN :

Register | Disclaimer

   EN    FR    IT 

 









Legend :    VFR   Marginal VFR   IFR   Intensive IFR   Very Intensive IFR
Visi :
Ceiling :
>= 8 km
>= 3000ft
5 to 8 km
1000 to 3000 ft
1500m to 5 km
500 to 1000 ft
800 to 1500m
200 to 500 ft
< 800m
< 200 ft
Symbols :   Thunderstorms  Fog  Heavy snow  Heavy precipitations  Wind > 20 kt






- Airport Elevation : 270 ft
- IATA code : LIR


MRLB - Daniel Oduber Quiros International

CURRENT METAR :
  • 170400Z 15003KT CAVOK 25/23 A2984 NOSIG

EXPIRED METARs :
  • 170300Z 10003KT CAVOK 25/23 A2985 NOSIG
  • 170200Z 13006KT CAVOK 27/22 A2983 NOSIG

TAF MRLB
Valid from the 17 at 00:00 until the 18 at 00:00 UTC


162300Z 1700/1724 08010KT 9999 FEW040 TX31/1619Z TN22/1710Z
TEMPO 1708/1712 26004KT SCT005



MET'MAP, your aeronautical weather chart ! - Copyright ORBIFLY December 2007 - Disclaimer

ORBIFLY MET'MAP TEAM :

Programming & Development : Alexandra Zaïnal
Concept & Development : Baudouin d'Aumeries
Co-Development & Prog : Marc-Olivier Méhu
Technical & hardware support : Manuel Goepfert

Contact : metmap@orbifly.com




SOURCES & CREDITS :

   NOAA       Earth
Advisory